Here is the Quick Look data you requested

The Data originates at the National Weather Service, and is made available here by the UAlbany Department of Atmospheric and Environmental Sciences

Surface Observations

KBID 271456Z AUTO 33005KT 10SM FEW005 SCT010 BKN024 20/18 A3003 RMK AO2
 RAB37E48 SLP172 P0000 6//// T02000178 53001=
KOQU 271450Z 28005KT 10SM FEW020 OVC120 20/13 A3002=
KPVD 271451Z 25003KT 10SM FEW015TCU BKN100 BKN120 20/16 A3002 RMK AO2 SLP165
 TCU SE T02000156 50001=
KUUU 271453Z AUTO 19004KT 10SM SCT016 OVC100 19/18 A3004 RMK AO2 SLP169
 T01940178 53006=
KWST 271453Z AUTO 10010KT 10SM -RA FEW032 SCT070 BKN080 19/17 A3000 RMK AO2
 RAB15 SLP158 P0003 60003 T01890167 58011=